Pagrindinis puslapis
METAR-TAF:

METAR-TAF

Oro uostai :

Vientianas, Laosas

platuma: 17-57N, ilguma: 102-34E, Aukštis: 171 m

Dabartinis oras

Ataskaita buvo paskelbta 23 minutes, ne 21:00 UTC
Vėjas 6 kt iš Rytų/Šiaurės Rytų
Temperatūra 24°C
Drėgmė 100%
Slėgis 1011 hPa
Matomumas: 4000 m
Su prošvaistėmis ne aukštis 1000 ft
Apsiniaukę ne aukštis 8300 ft
dulksna

METAR: VLVT 302100Z 06006KT 4000 DZ BKN010 OVC083 24/24 Q1011 NOSIG

Laikas: 04:23 (21:23 UTC)

Prognozė

Ataskaita buvo paskelbta 10 valandos ir 23 minutes, ne 11:00 UTC
Prognozė galioja nuo 30 metu 12 UTC su 31 metu 12 UTC
Vėjas 6 kt iš Vakarų/Pietvakarių
Matomumas: 8000 m
Išsisklaidę debesys ne aukštis 1600 ft
Išsisklaidę debesys ne aukštis 20000 ft
Laikinai
nuo 30 metu 14 UTC su 30 metu 20 UTC
Matomumas: 4000 m
Mažai debesys ne aukštis 1600 ft
Išsisklaidę debesys ne aukštis 4000 ft
Su prošvaistėmis ne aukštis 8300 ft
rūkana

TAF: VLVT 301100Z 3012/3112 24006KT 8000 SCT016 SCT200 TEMPO 3014/3020 4000 BR FEW016 SCT040 BKN083

Orai ataskaitas ir orų prognozės (METAR, TAF).

turimą stotys yra geltonos ir raudonos taškus žemėlapyje.

Perkelti pele per norėdami pamatyti stoties vardą.

Tada spustelėkite, norėdami matyti oro stebėjimo ir prognozės.

Norėdami pakeisti žemėlapį: spustelėkite ant žalios mygtukų su juodo kryžiaus žemyn,; žalią mygtuką su brūkšneliu, jei norite nutolinti; arba žalių rodyklių gretimoms žemėlapius.


METAR-TAF: